sensor_id;sensor_type;location;lat;lon;timestamp;P1;P2;P0
70436;PMS5003;57877;39.750;-104.894;2023-04-25T00:00:45;0;0;
70436;PMS5003;57877;39.750;-104.894;2023-04-25T00:03:11;1;0;
70436;PMS5003;57877;39.750;-104.894;2023-04-25T00:05:37;1;1;
70436;PMS5003;57877;39.750;-104.894;2023-04-25T00:08:03;3;3;
70436;PMS5003;57877;39.750;-104.894;2023-04-25T00:10:29;5;5;
70436;PMS5003;57877;39.750;-104.894;2023-04-25T00:12:55;1;1;
70436;PMS5003;57877;39.750;-104.894;2023-04-25T00:15:21;3;3;
70436;PMS5003;57877;39.750;-104.894;2023-04-25T00:17:47;1;1;
70436;PMS5003;57877;39.750;-104.894;2023-04-25T00:20:13;0;0;
70436;PMS5003;57877;39.750;-104.894;2023-04-25T00:22:39;1;1;
70436;PMS5003;57877;39.750;-104.894;2023-04-25T00:25:06;0;0;
70436;PMS5003;57877;39.750;-104.894;2023-04-25T00:27:31;2;2;
70436;PMS5003;57877;39.750;-104.894;2023-04-25T00:29:57;0;0;
70436;PMS5003;57877;39.750;-104.894;2023-04-25T00:32:23;0;0;
70436;PMS5003;57877;39.750;-104.894;2023-04-25T00:34:49;0;0;
70436;PMS5003;57877;39.750;-104.894;2023-04-25T00:37:15;0;0;
70436;PMS5003;57877;39.750;-104.894;2023-04-25T00:39:41;0;0;
70436;PMS5003;57877;39.750;-104.894;2023-04-25T00:42:07;0;0;
70436;PMS5003;57877;39.750;-104.894;2023-04-25T00:44:33;0;0;
70436;PMS5003;57877;39.750;-104.894;2023-04-25T00:46:59;0;0;
70436;PMS5003;57877;39.750;-104.894;2023-04-25T00:49:25;1;1;
70436;PMS5003;57877;39.750;-104.894;2023-04-25T00:51:51;1;1;
70436;PMS5003;57877;39.750;-104.894;2023-04-25T00:54:17;2;1;
70436;PMS5003;57877;39.750;-104.894;2023-04-25T00:56:43;1;0;
70436;PMS5003;57877;39.750;-104.894;2023-04-25T00:59:08;0;0;
70436;PMS5003;57877;39.750;-104.894;2023-04-25T01:01:33;0;0;
70436;PMS5003;57877;39.750;-104.894;2023-04-25T01:03:58;0;0;
70436;PMS5003;57877;39.750;-104.894;2023-04-25T01:06:23;0;0;
70436;PMS5003;57877;39.750;-104.894;2023-04-25T01:08:48;0;0;
70436;PMS5003;57877;39.750;-104.894;2023-04-25T01:11:13;1;1;
70436;PMS5003;57877;39.750;-104.894;2023-04-25T01:13:39;0;0;
70436;PMS5003;57877;39.750;-104.894;2023-04-25T01:16:03;0;0;
70436;PMS5003;57877;39.750;-104.894;2023-04-25T01:18:28;1;1;
70436;PMS5003;57877;39.750;-104.894;2023-04-25T01:20:54;2;2;
70436;PMS5003;57877;39.750;-104.894;2023-04-25T01:23:18;0;0;
70436;PMS5003;57877;39.750;-104.894;2023-04-25T01:25:43;0;0;
70436;PMS5003;57877;39.750;-104.894;2023-04-25T01:28:09;3;3;
70436;PMS5003;57877;39.750;-104.894;2023-04-25T01:30:33;0;0;
70436;PMS5003;57877;39.750;-104.894;2023-04-25T01:32:58;1;1;
70436;PMS5003;57877;39.750;-104.894;2023-04-25T01:35:24;0;0;
70436;PMS5003;57877;39.750;-104.894;2023-04-25T01:37:49;2;2;
70436;PMS5003;57877;39.750;-104.894;2023-04-25T01:40:14;1;1;
70436;PMS5003;57877;39.750;-104.894;2023-04-25T01:42:40;1;0;
70436;PMS5003;57877;39.750;-104.894;2023-04-25T01:45:04;1;1;
70436;PMS5003;57877;39.750;-104.894;2023-04-25T01:47:29;1;1;
70436;PMS5003;57877;39.750;-104.894;2023-04-25T01:49:54;1;1;
70436;PMS5003;57877;39.750;-104.894;2023-04-25T01:52:19;1;0;
70436;PMS5003;57877;39.750;-104.894;2023-04-25T01:54:44;2;2;
70436;PMS5003;57877;39.750;-104.894;2023-04-25T01:57:09;2;1;
70436;PMS5003;57877;39.750;-104.894;2023-04-25T01:59:34;4;3;
70436;PMS5003;57877;39.750;-104.894;2023-04-25T02:01:59;2;2;
70436;PMS5003;57877;39.750;-104.894;2023-04-25T02:04:24;2;2;
70436;PMS5003;57877;39.750;-104.894;2023-04-25T02:06:49;2;2;
70436;PMS5003;57877;39.750;-104.894;2023-04-25T02:09:15;1;1;
70436;PMS5003;57877;39.750;-104.894;2023-04-25T02:11:40;2;0;
70436;PMS5003;57877;39.750;-104.894;2023-04-25T02:14:05;1;1;
70436;PMS5003;57877;39.750;-104.894;2023-04-25T02:16:30;1;1;
70436;PMS5003;57877;39.750;-104.894;2023-04-25T02:18:56;3;3;
70436;PMS5003;57877;39.750;-104.894;2023-04-25T02:21:21;2;2;
70436;PMS5003;57877;39.750;-104.894;2023-04-25T02:23:46;1;1;
70436;PMS5003;57877;39.750;-104.894;2023-04-25T02:26:11;2;0;
70436;PMS5003;57877;39.750;-104.894;2023-04-25T02:28:37;0;0;
70436;PMS5003;57877;39.750;-104.894;2023-04-25T02:31:02;1;1;
70436;PMS5003;57877;39.750;-104.894;2023-04-25T02:33:27;1;1;
70436;PMS5003;57877;39.750;-104.894;2023-04-25T02:35:52;1;1;
70436;PMS5003;57877;39.750;-104.894;2023-04-25T02:38:17;3;2;
70436;PMS5003;57877;39.750;-104.894;2023-04-25T02:40:42;0;0;
70436;PMS5003;57877;39.750;-104.894;2023-04-25T02:43:09;2;1;
70436;PMS5003;57877;39.750;-104.894;2023-04-25T02:45:34;3;3;
70436;PMS5003;57877;39.750;-104.894;2023-04-25T02:48:00;2;2;
70436;PMS5003;57877;39.750;-104.894;2023-04-25T02:50:25;1;1;
70436;PMS5003;57877;39.750;-104.894;2023-04-25T02:52:50;1;1;
70436;PMS5003;57877;39.750;-104.894;2023-04-25T02:57:40;2;2;
70436;PMS5003;57877;39.750;-104.894;2023-04-25T03:00:05;2;2;
70436;PMS5003;57877;39.750;-104.894;2023-04-25T03:02:30;1;0;
70436;PMS5003;57877;39.750;-104.894;2023-04-25T03:09:45;1;1;
70436;PMS5003;57877;39.750;-104.894;2023-04-25T03:12:10;0;0;
70436;PMS5003;57877;39.750;-104.894;2023-04-25T03:21:50;0;0;
70436;PMS5003;57877;39.750;-104.894;2023-04-25T03:24:15;0;0;
70436;PMS5003;57877;39.750;-104.894;2023-04-25T03:26:40;1;1;
70436;PMS5003;57877;39.750;-104.894;2023-04-25T03:29:05;3;2;
70436;PMS5003;57877;39.750;-104.894;2023-04-25T03:31:30;3;2;
70436;PMS5003;57877;39.750;-104.894;2023-04-25T03:33:55;2;1;
70436;PMS5003;57877;39.750;-104.894;2023-04-25T03:36:20;2;2;
70436;PMS5003;57877;39.750;-104.894;2023-04-25T03:38:46;3;3;
70436;PMS5003;57877;39.750;-104.894;2023-04-25T03:41:12;2;2;
70436;PMS5003;57877;39.750;-104.894;2023-04-25T03:43:38;3;3;
70436;PMS5003;57877;39.750;-104.894;2023-04-25T03:46:04;2;2;
70436;PMS5003;57877;39.750;-104.894;2023-04-25T03:48:30;2;2;
70436;PMS5003;57877;39.750;-104.894;2023-04-25T03:50:55;0;0;
70436;PMS5003;57877;39.750;-104.894;2023-04-25T03:53:21;2;2;
70436;PMS5003;57877;39.750;-104.894;2023-04-25T03:55:47;2;2;
70436;PMS5003;57877;39.750;-104.894;2023-04-25T03:58:13;2;1;
70436;PMS5003;57877;39.750;-104.894;2023-04-25T04:00:39;1;1;
70436;PMS5003;57877;39.750;-104.894;2023-04-25T04:03:04;0;0;
70436;PMS5003;57877;39.750;-104.894;2023-04-25T04:05:30;0;0;
70436;PMS5003;57877;39.750;-104.894;2023-04-25T04:07:55;0;0;
70436;PMS5003;57877;39.750;-104.894;2023-04-25T04:10:20;1;1;
70436;PMS5003;57877;39.750;-104.894;2023-04-25T04:12:45;0;0;
70436;PMS5003;57877;39.750;-104.894;2023-04-25T04:15:11;0;0;
70436;PMS5003;57877;39.750;-104.894;2023-04-25T04:17:37;1;1;
70436;PMS5003;57877;39.750;-104.894;2023-04-25T04:20:02;0;0;
70436;PMS5003;57877;39.750;-104.894;2023-04-25T04:22:27;0;0;
70436;PMS5003;57877;39.750;-104.894;2023-04-25T04:24:52;0;0;
70436;PMS5003;57877;39.750;-104.894;2023-04-25T04:27:17;0;0;
70436;PMS5003;57877;39.750;-104.894;2023-04-25T04:29:42;0;0;
70436;PMS5003;57877;39.750;-104.894;2023-04-25T04:32:07;0;0;
70436;PMS5003;57877;39.750;-104.894;2023-04-25T04:34:32;0;0;
70436;PMS5003;57877;39.750;-104.894;2023-04-25T04:36:57;0;0;
70436;PMS5003;57877;39.750;-104.894;2023-04-25T04:39:22;0;0;
70436;PMS5003;57877;39.750;-104.894;2023-04-25T04:41:47;0;0;
70436;PMS5003;57877;39.750;-104.894;2023-04-25T04:44:12;0;0;
70436;PMS5003;57877;39.750;-104.894;2023-04-25T04:46:37;0;0;
70436;PMS5003;57877;39.750;-104.894;2023-04-25T04:49:02;0;0;
70436;PMS5003;57877;39.750;-104.894;2023-04-25T04:51:27;0;0;
70436;PMS5003;57877;39.750;-104.894;2023-04-25T04:53:53;0;0;
70436;PMS5003;57877;39.750;-104.894;2023-04-25T04:56:19;0;0;
70436;PMS5003;57877;39.750;-104.894;2023-04-25T04:58:44;0;0;
70436;PMS5003;57877;39.750;-104.894;2023-04-25T05:01:09;0;0;
70436;PMS5003;57877;39.750;-104.894;2023-04-25T05:03:34;0;0;
70436;PMS5003;57877;39.750;-104.894;2023-04-25T05:05:59;0;0;
70436;PMS5003;57877;39.750;-104.894;2023-04-25T05:08:25;0;0;
70436;PMS5003;57877;39.750;-104.894;2023-04-25T05:10:50;0;0;
70436;PMS5003;57877;39.750;-104.894;2023-04-25T05:13:15;0;0;
70436;PMS5003;57877;39.750;-104.894;2023-04-25T05:15:40;0;0;
70436;PMS5003;57877;39.750;-104.894;2023-04-25T05:18:05;0;0;
70436;PMS5003;57877;39.750;-104.894;2023-04-25T05:20:30;0;0;
70436;PMS5003;57877;39.750;-104.894;2023-04-25T05:22:55;0;0;
70436;PMS5003;57877;39.750;-104.894;2023-04-25T05:25:20;0;0;
70436;PMS5003;57877;39.750;-104.894;2023-04-25T05:27:45;0;0;
70436;PMS5003;57877;39.750;-104.894;2023-04-25T05:30:10;0;0;
70436;PMS5003;57877;39.750;-104.894;2023-04-25T05:32:36;0;0;
70436;PMS5003;57877;39.750;-104.894;2023-04-25T05:35:01;0;0;
70436;PMS5003;57877;39.750;-104.894;2023-04-25T05:37:26;0;0;
70436;PMS5003;57877;39.750;-104.894;2023-04-25T05:39:51;0;0;
70436;PMS5003;57877;39.750;-104.894;2023-04-25T05:42:16;0;0;
70436;PMS5003;57877;39.750;-104.894;2023-04-25T05:44:41;0;0;
70436;PMS5003;57877;39.750;-104.894;2023-04-25T05:47:06;1;1;
70436;PMS5003;57877;39.750;-104.894;2023-04-25T05:49:31;0;0;
70436;PMS5003;57877;39.750;-104.894;2023-04-25T05:51:56;0;0;
70436;PMS5003;57877;39.750;-104.894;2023-04-25T05:54:21;0;0;
70436;PMS5003;57877;39.750;-104.894;2023-04-25T05:56:46;0;0;
70436;PMS5003;57877;39.750;-104.894;2023-04-25T05:59:12;0;0;
70436;PMS5003;57877;39.750;-104.894;2023-04-25T06:01:37;0;0;
70436;PMS5003;57877;39.750;-104.894;2023-04-25T06:04:02;0;0;
70436;PMS5003;57877;39.750;-104.894;2023-04-25T06:06:27;0;0;
70436;PMS5003;57877;39.750;-104.894;2023-04-25T06:08:52;0;0;
70436;PMS5003;57877;39.750;-104.894;2023-04-25T06:11:17;0;0;
70436;PMS5003;57877;39.750;-104.894;2023-04-25T06:13:42;0;0;
70436;PMS5003;57877;39.750;-104.894;2023-04-25T06:16:07;0;0;
70436;PMS5003;57877;39.750;-104.894;2023-04-25T06:18:32;0;0;
70436;PMS5003;57877;39.750;-104.894;2023-04-25T06:20:57;0;0;
70436;PMS5003;57877;39.750;-104.894;2023-04-25T06:23:22;0;0;
70436;PMS5003;57877;39.750;-104.894;2023-04-25T06:25:47;0;0;
70436;PMS5003;57877;39.750;-104.894;2023-04-25T06:28:12;0;0;
70436;PMS5003;57877;39.750;-104.894;2023-04-25T06:30:38;0;0;
70436;PMS5003;57877;39.750;-104.894;2023-04-25T06:33:02;0;0;
70436;PMS5003;57877;39.750;-104.894;2023-04-25T06:35:27;0;0;
70436;PMS5003;57877;39.750;-104.894;2023-04-25T06:37:53;0;0;
70436;PMS5003;57877;39.750;-104.894;2023-04-25T06:40:18;0;0;
70436;PMS5003;57877;39.750;-104.894;2023-04-25T06:42:43;0;0;
70436;PMS5003;57877;39.750;-104.894;2023-04-25T06:45:08;0;0;
70436;PMS5003;57877;39.750;-104.894;2023-04-25T06:47:33;0;0;
70436;PMS5003;57877;39.750;-104.894;2023-04-25T06:49:58;0;0;
70436;PMS5003;57877;39.750;-104.894;2023-04-25T06:52:23;0;0;
70436;PMS5003;57877;39.750;-104.894;2023-04-25T06:54:48;0;0;
70436;PMS5003;57877;39.750;-104.894;2023-04-25T06:57:13;0;0;
70436;PMS5003;57877;39.750;-104.894;2023-04-25T06:59:38;0;0;
70436;PMS5003;57877;39.750;-104.894;2023-04-25T07:02:03;0;0;
70436;PMS5003;57877;39.750;-104.894;2023-04-25T07:04:28;0;0;
70436;PMS5003;57877;39.750;-104.894;2023-04-25T07:06:53;0;0;
70436;PMS5003;57877;39.750;-104.894;2023-04-25T07:09:18;1;0;
70436;PMS5003;57877;39.750;-104.894;2023-04-25T07:11:43;0;0;
70436;PMS5003;57877;39.750;-104.894;2023-04-25T07:14:08;1;0;
70436;PMS5003;57877;39.750;-104.894;2023-04-25T07:16:33;0;0;
70436;PMS5003;57877;39.750;-104.894;2023-04-25T07:18:58;0;0;
70436;PMS5003;57877;39.750;-104.894;2023-04-25T07:21:23;0;0;
70436;PMS5003;57877;39.750;-104.894;2023-04-25T07:23:49;0;0;
70436;PMS5003;57877;39.750;-104.894;2023-04-25T07:26:14;0;0;
70436;PMS5003;57877;39.750;-104.894;2023-04-25T07:28:39;0;0;
70436;PMS5003;57877;39.750;-104.894;2023-04-25T07:31:04;1;1;
70436;PMS5003;57877;39.750;-104.894;2023-04-25T07:33:29;0;0;
70436;PMS5003;57877;39.750;-104.894;2023-04-25T07:35:54;0;0;
70436;PMS5003;57877;39.750;-104.894;2023-04-25T07:38:19;0;0;
70436;PMS5003;57877;39.750;-104.894;2023-04-25T07:40:44;0;0;
70436;PMS5003;57877;39.750;-104.894;2023-04-25T07:43:09;0;0;
70436;PMS5003;57877;39.750;-104.894;2023-04-25T07:45:34;0;0;
70436;PMS5003;57877;39.750;-104.894;2023-04-25T07:47:59;0;0;
70436;PMS5003;57877;39.750;-104.894;2023-04-25T07:50:24;0;0;
70436;PMS5003;57877;39.750;-104.894;2023-04-25T07:52:49;0;0;
70436;PMS5003;57877;39.750;-104.894;2023-04-25T07:55:14;0;0;
70436;PMS5003;57877;39.750;-104.894;2023-04-25T07:57:39;0;0;
70436;PMS5003;57877;39.750;-104.894;2023-04-25T08:00:05;0;0;
70436;PMS5003;57877;39.750;-104.894;2023-04-25T08:02:30;0;0;
70436;PMS5003;57877;39.750;-104.894;2023-04-25T08:04:55;0;0;
70436;PMS5003;57877;39.750;-104.894;2023-04-25T08:07:20;0;0;
70436;PMS5003;57877;39.750;-104.894;2023-04-25T08:09:45;0;0;
70436;PMS5003;57877;39.750;-104.894;2023-04-25T08:12:10;0;0;
70436;PMS5003;57877;39.750;-104.894;2023-04-25T08:14:35;0;0;
70436;PMS5003;57877;39.750;-104.894;2023-04-25T08:17:00;0;0;
70436;PMS5003;57877;39.750;-104.894;2023-04-25T08:19:25;0;0;
70436;PMS5003;57877;39.750;-104.894;2023-04-25T08:21:50;0;0;
70436;PMS5003;57877;39.750;-104.894;2023-04-25T08:24:15;0;0;
70436;PMS5003;57877;39.750;-104.894;2023-04-25T08:26:40;0;0;
70436;PMS5003;57877;39.750;-104.894;2023-04-25T08:29:05;0;0;
70436;PMS5003;57877;39.750;-104.894;2023-04-25T08:31:30;0;0;
70436;PMS5003;57877;39.750;-104.894;2023-04-25T08:33:55;0;0;
70436;PMS5003;57877;39.750;-104.894;2023-04-25T08:36:21;0;0;
70436;PMS5003;57877;39.750;-104.894;2023-04-25T08:38:46;0;0;
70436;PMS5003;57877;39.750;-104.894;2023-04-25T08:41:11;0;0;
70436;PMS5003;57877;39.750;-104.894;2023-04-25T08:43:36;0;0;
70436;PMS5003;57877;39.750;-104.894;2023-04-25T08:46:01;0;0;
70436;PMS5003;57877;39.750;-104.894;2023-04-25T08:48:27;0;0;
70436;PMS5003;57877;39.750;-104.894;2023-04-25T08:50:52;0;0;
70436;PMS5003;57877;39.750;-104.894;2023-04-25T08:53:16;0;0;
70436;PMS5003;57877;39.750;-104.894;2023-04-25T08:55:41;0;0;
70436;PMS5003;57877;39.750;-104.894;2023-04-25T08:58:06;0;0;
70436;PMS5003;57877;39.750;-104.894;2023-04-25T09:00:31;0;0;
70436;PMS5003;57877;39.750;-104.894;2023-04-25T09:02:56;0;0;
70436;PMS5003;57877;39.750;-104.894;2023-04-25T09:05:21;0;0;
70436;PMS5003;57877;39.750;-104.894;2023-04-25T09:07:47;0;0;
70436;PMS5003;57877;39.750;-104.894;2023-04-25T09:10:12;0;0;
70436;PMS5003;57877;39.750;-104.894;2023-04-25T09:12:37;0;0;
70436;PMS5003;57877;39.750;-104.894;2023-04-25T09:15:05;0;0;
70436;PMS5003;57877;39.750;-104.894;2023-04-25T09:17:27;0;0;
70436;PMS5003;57877;39.750;-104.894;2023-04-25T09:19:52;2;2;
70436;PMS5003;57877;39.750;-104.894;2023-04-25T09:22:17;0;0;
70436;PMS5003;57877;39.750;-104.894;2023-04-25T09:24:43;0;0;
70436;PMS5003;57877;39.750;-104.894;2023-04-25T09:27:08;1;1;
70436;PMS5003;57877;39.750;-104.894;2023-04-25T09:29:33;1;1;
70436;PMS5003;57877;39.750;-104.894;2023-04-25T09:34:23;1;1;
70436;PMS5003;57877;39.750;-104.894;2023-04-25T09:36:47;1;1;
70436;PMS5003;57877;39.750;-104.894;2023-04-25T09:39:13;0;0;
70436;PMS5003;57877;39.750;-104.894;2023-04-25T09:41:38;1;1;
70436;PMS5003;57877;39.750;-104.894;2023-04-25T09:44:03;0;0;
70436;PMS5003;57877;39.750;-104.894;2023-04-25T09:46:32;0;0;
70436;PMS5003;57877;39.750;-104.894;2023-04-25T09:48:53;0;0;
70436;PMS5003;57877;39.750;-104.894;2023-04-25T09:51:18;0;0;
70436;PMS5003;57877;39.750;-104.894;2023-04-25T09:53:44;0;0;
70436;PMS5003;57877;39.750;-104.894;2023-04-25T09:56:08;0;0;
70436;PMS5003;57877;39.750;-104.894;2023-04-25T09:58:33;0;0;
70436;PMS5003;57877;39.750;-104.894;2023-04-25T10:01:00;0;0;
70436;PMS5003;57877;39.750;-104.894;2023-04-25T10:03:23;0;0;
70436;PMS5003;57877;39.750;-104.894;2023-04-25T10:05:48;0;0;
70436;PMS5003;57877;39.750;-104.894;2023-04-25T10:08:14;0;0;
70436;PMS5003;57877;39.750;-104.894;2023-04-25T10:10:39;1;0;
70436;PMS5003;57877;39.750;-104.894;2023-04-25T10:13:04;0;0;
70436;PMS5003;57877;39.750;-104.894;2023-04-25T10:15:29;0;0;
70436;PMS5003;57877;39.750;-104.894;2023-04-25T10:17:54;0;0;
70436;PMS5003;57877;39.750;-104.894;2023-04-25T10:20:19;1;0;
70436;PMS5003;57877;39.750;-104.894;2023-04-25T10:22:44;1;1;
70436;PMS5003;57877;39.750;-104.894;2023-04-25T10:25:09;2;1;
70436;PMS5003;57877;39.750;-104.894;2023-04-25T10:27:34;1;0;
70436;PMS5003;57877;39.750;-104.894;2023-04-25T10:30:00;0;0;
70436;PMS5003;57877;39.750;-104.894;2023-04-25T10:32:24;0;0;
70436;PMS5003;57877;39.750;-104.894;2023-04-25T10:34:49;0;0;
70436;PMS5003;57877;39.750;-104.894;2023-04-25T10:37:15;0;0;
70436;PMS5003;57877;39.750;-104.894;2023-04-25T10:39:40;0;0;
70436;PMS5003;57877;39.750;-104.894;2023-04-25T10:42:05;0;0;
70436;PMS5003;57877;39.750;-104.894;2023-04-25T10:44:30;0;0;
70436;PMS5003;57877;39.750;-104.894;2023-04-25T10:46:55;0;0;
70436;PMS5003;57877;39.750;-104.894;2023-04-25T10:51:45;0;0;
70436;PMS5003;57877;39.750;-104.894;2023-04-25T10:54:10;0;0;
70436;PMS5003;57877;39.750;-104.894;2023-04-25T10:56:37;0;0;
70436;PMS5003;57877;39.750;-104.894;2023-04-25T10:59:03;1;0;
70436;PMS5003;57877;39.750;-104.894;2023-04-25T11:01:25;0;0;
70436;PMS5003;57877;39.750;-104.894;2023-04-25T11:03:56;0;0;
70436;PMS5003;57877;39.750;-104.894;2023-04-25T11:06:20;0;0;
70436;PMS5003;57877;39.750;-104.894;2023-04-25T11:08:43;0;0;
70436;PMS5003;57877;39.750;-104.894;2023-04-25T11:11:06;1;1;
70436;PMS5003;57877;39.750;-104.894;2023-04-25T11:13:31;1;0;
70436;PMS5003;57877;39.750;-104.894;2023-04-25T11:15:56;1;1;
70436;PMS5003;57877;39.750;-104.894;2023-04-25T11:18:21;0;0;
70436;PMS5003;57877;39.750;-104.894;2023-04-25T11:20:46;1;1;
70436;PMS5003;57877;39.750;-104.894;2023-04-25T11:23:11;0;0;
70436;PMS5003;57877;39.750;-104.894;2023-04-25T11:25:36;1;1;
70436;PMS5003;57877;39.750;-104.894;2023-04-25T11:28:01;2;0;
70436;PMS5003;57877;39.750;-104.894;2023-04-25T11:30:26;0;0;
70436;PMS5003;57877;39.750;-104.894;2023-04-25T11:32:52;1;0;
70436;PMS5003;57877;39.750;-104.894;2023-04-25T11:35:16;1;0;
70436;PMS5003;57877;39.750;-104.894;2023-04-25T11:37:42;0;0;
70436;PMS5003;57877;39.750;-104.894;2023-04-25T11:40:07;0;0;
70436;PMS5003;57877;39.750;-104.894;2023-04-25T11:42:32;0;0;
70436;PMS5003;57877;39.750;-104.894;2023-04-25T11:44:57;1;1;
70436;PMS5003;57877;39.750;-104.894;2023-04-25T11:49:47;1;1;
70436;PMS5003;57877;39.750;-104.894;2023-04-25T11:52:12;1;1;
70436;PMS5003;57877;39.750;-104.894;2023-04-25T11:54:37;0;0;
70436;PMS5003;57877;39.750;-104.894;2023-04-25T11:57:03;1;1;
70436;PMS5003;57877;39.750;-104.894;2023-04-25T11:59:27;1;1;
70436;PMS5003;57877;39.750;-104.894;2023-04-25T12:01:53;0;0;
70436;PMS5003;57877;39.750;-104.894;2023-04-25T12:04:18;2;1;
70436;PMS5003;57877;39.750;-104.894;2023-04-25T12:06:43;2;1;
70436;PMS5003;57877;39.750;-104.894;2023-04-25T12:09:08;1;1;
70436;PMS5003;57877;39.750;-104.894;2023-04-25T12:11:35;1;1;
70436;PMS5003;57877;39.750;-104.894;2023-04-25T12:14:01;2;2;
70436;PMS5003;57877;39.750;-104.894;2023-04-25T12:16:24;1;1;
70436;PMS5003;57877;39.750;-104.894;2023-04-25T12:18:51;2;1;
70436;PMS5003;57877;39.750;-104.894;2023-04-25T12:21:13;3;3;
70436;PMS5003;57877;39.750;-104.894;2023-04-25T12:23:39;1;1;
70436;PMS5003;57877;39.750;-104.894;2023-04-25T12:26:04;2;1;
70436;PMS5003;57877;39.750;-104.894;2023-04-25T12:28:29;1;1;
70436;PMS5003;57877;39.750;-104.894;2023-04-25T12:30:55;2;1;
70436;PMS5003;57877;39.750;-104.894;2023-04-25T12:33:19;7;6;
70436;PMS5003;57877;39.750;-104.894;2023-04-25T12:35:44;1;1;
70436;PMS5003;57877;39.750;-104.894;2023-04-25T12:38:09;3;3;
70436;PMS5003;57877;39.750;-104.894;2023-04-25T12:40:34;2;2;
70436;PMS5003;57877;39.750;-104.894;2023-04-25T12:42:59;4;4;
70436;PMS5003;57877;39.750;-104.894;2023-04-25T12:45:24;3;3;
70436;PMS5003;57877;39.750;-104.894;2023-04-25T12:47:50;3;3;
70436;PMS5003;57877;39.750;-104.894;2023-04-25T12:50:15;1;1;
70436;PMS5003;57877;39.750;-104.894;2023-04-25T12:52:40;4;4;
70436;PMS5003;57877;39.750;-104.894;2023-04-25T12:55:05;3;3;
70436;PMS5003;57877;39.750;-104.894;2023-04-25T12:57:30;5;5;
70436;PMS5003;57877;39.750;-104.894;2023-04-25T12:59:55;4;4;
70436;PMS5003;57877;39.750;-104.894;2023-04-25T13:02:20;3;3;
70436;PMS5003;57877;39.750;-104.894;2023-04-25T13:04:45;4;3;
70436;PMS5003;57877;39.750;-104.894;2023-04-25T13:07:10;2;2;
70436;PMS5003;57877;39.750;-104.894;2023-04-25T13:09:35;2;2;
70436;PMS5003;57877;39.750;-104.894;2023-04-25T13:12:01;1;1;
70436;PMS5003;57877;39.750;-104.894;2023-04-25T13:14:26;2;2;
70436;PMS5003;57877;39.750;-104.894;2023-04-25T13:16:51;3;3;
70436;PMS5003;57877;39.750;-104.894;2023-04-25T13:19:16;4;4;
70436;PMS5003;57877;39.750;-104.894;2023-04-25T13:21:41;5;5;
70436;PMS5003;57877;39.750;-104.894;2023-04-25T13:24:06;4;3;
70436;PMS5003;57877;39.750;-104.894;2023-04-25T13:26:31;6;5;
70436;PMS5003;57877;39.750;-104.894;2023-04-25T13:28:56;3;3;
70436;PMS5003;57877;39.750;-104.894;2023-04-25T13:31:22;2;2;
70436;PMS5003;57877;39.750;-104.894;2023-04-25T13:33:46;3;3;
70436;PMS5003;57877;39.750;-104.894;2023-04-25T13:36:12;5;5;
70436;PMS5003;57877;39.750;-104.894;2023-04-25T13:38:37;2;2;
70436;PMS5003;57877;39.750;-104.894;2023-04-25T13:41:02;4;4;
70436;PMS5003;57877;39.750;-104.894;2023-04-25T13:43:27;4;4;
70436;PMS5003;57877;39.750;-104.894;2023-04-25T13:45:52;4;4;
70436;PMS5003;57877;39.750;-104.894;2023-04-25T13:48:18;1;1;
70436;PMS5003;57877;39.750;-104.894;2023-04-25T13:50:42;2;1;
70436;PMS5003;57877;39.750;-104.894;2023-04-25T13:53:07;1;0;
70436;PMS5003;57877;39.750;-104.894;2023-04-25T13:55:33;1;0;
70436;PMS5003;57877;39.750;-104.894;2023-04-25T13:57:57;1;1;
70436;PMS5003;57877;39.750;-104.894;2023-04-25T14:00:22;1;1;
70436;PMS5003;57877;39.750;-104.894;2023-04-25T14:02:48;3;3;
70436;PMS5003;57877;39.750;-104.894;2023-04-25T14:05:13;2;1;
70436;PMS5003;57877;39.750;-104.894;2023-04-25T14:07:38;1;1;
70436;PMS5003;57877;39.750;-104.894;2023-04-25T14:10:03;2;2;
70436;PMS5003;57877;39.750;-104.894;2023-04-25T14:12:28;1;0;
70436;PMS5003;57877;39.750;-104.894;2023-04-25T14:14:53;1;1;
70436;PMS5003;57877;39.750;-104.894;2023-04-25T14:17:18;0;0;
70436;PMS5003;57877;39.750;-104.894;2023-04-25T14:19:43;1;1;
70436;PMS5003;57877;39.750;-104.894;2023-04-25T14:22:08;1;1;
70436;PMS5003;57877;39.750;-104.894;2023-04-25T14:24:33;1;0;
70436;PMS5003;57877;39.750;-104.894;2023-04-25T14:26:58;1;1;
70436;PMS5003;57877;39.750;-104.894;2023-04-25T14:29:24;1;0;
70436;PMS5003;57877;39.750;-104.894;2023-04-25T14:31:48;2;1;
70436;PMS5003;57877;39.750;-104.894;2023-04-25T14:34:14;1;1;
70436;PMS5003;57877;39.750;-104.894;2023-04-25T14:36:39;0;0;
70436;PMS5003;57877;39.750;-104.894;2023-04-25T14:39:04;2;2;
70436;PMS5003;57877;39.750;-104.894;2023-04-25T14:41:29;0;0;
70436;PMS5003;57877;39.750;-104.894;2023-04-25T14:43:54;0;0;
70436;PMS5003;57877;39.750;-104.894;2023-04-25T14:46:20;1;1;
70436;PMS5003;57877;39.750;-104.894;2023-04-25T14:48:45;1;1;
70436;PMS5003;57877;39.750;-104.894;2023-04-25T14:51:10;0;0;
70436;PMS5003;57877;39.750;-104.894;2023-04-25T14:53:35;0;0;
70436;PMS5003;57877;39.750;-104.894;2023-04-25T14:56:00;1;0;
70436;PMS5003;57877;39.750;-104.894;2023-04-25T14:58:25;2;2;
70436;PMS5003;57877;39.750;-104.894;2023-04-25T15:00:50;0;0;
70436;PMS5003;57877;39.750;-104.894;2023-04-25T15:03:15;2;0;
70436;PMS5003;57877;39.750;-104.894;2023-04-25T15:05:40;0;0;
70436;PMS5003;57877;39.750;-104.894;2023-04-25T15:08:05;1;1;
70436;PMS5003;57877;39.750;-104.894;2023-04-25T15:10:30;0;0;
70436;PMS5003;57877;39.750;-104.894;2023-04-25T15:12:55;1;0;
70436;PMS5003;57877;39.750;-104.894;2023-04-25T15:15:20;2;2;
70436;PMS5003;57877;39.750;-104.894;2023-04-25T15:17:45;2;2;
70436;PMS5003;57877;39.750;-104.894;2023-04-25T15:20:12;0;0;
70436;PMS5003;57877;39.750;-104.894;2023-04-25T15:22:35;0;0;
70436;PMS5003;57877;39.750;-104.894;2023-04-25T15:25:01;0;0;
70436;PMS5003;57877;39.750;-104.894;2023-04-25T15:27:26;0;0;
70436;PMS5003;57877;39.750;-104.894;2023-04-25T15:29:51;1;1;
70436;PMS5003;57877;39.750;-104.894;2023-04-25T15:32:16;0;0;
70436;PMS5003;57877;39.750;-104.894;2023-04-25T15:34:41;1;0;
70436;PMS5003;57877;39.750;-104.894;2023-04-25T15:37:06;2;2;
70436;PMS5003;57877;39.750;-104.894;2023-04-25T15:39:31;0;0;
70436;PMS5003;57877;39.750;-104.894;2023-04-25T15:41:56;0;0;
70436;PMS5003;57877;39.750;-104.894;2023-04-25T15:44:21;0;0;
70436;PMS5003;57877;39.750;-104.894;2023-04-25T15:46:46;0;0;
70436;PMS5003;57877;39.750;-104.894;2023-04-25T15:49:11;0;0;
70436;PMS5003;57877;39.750;-104.894;2023-04-25T15:51:36;0;0;
70436;PMS5003;57877;39.750;-104.894;2023-04-25T15:54:01;0;0;
70436;PMS5003;57877;39.750;-104.894;2023-04-25T15:56:26;1;0;
70436;PMS5003;57877;39.750;-104.894;2023-04-25T15:58:51;0;0;
70436;PMS5003;57877;39.750;-104.894;2023-04-25T16:01:16;0;0;
70436;PMS5003;57877;39.750;-104.894;2023-04-25T16:03:41;2;2;
70436;PMS5003;57877;39.750;-104.894;2023-04-25T16:06:06;2;2;
70436;PMS5003;57877;39.750;-104.894;2023-04-25T16:08:31;1;1;